Time;durP1;ratioP1;P1;durP2;ratioP2;P2;SDS_P1;SDS_P2;PMS_P1;PMS_P2;Temp;Humidity;BMP_temperature;BMP_pressure;BME280_temperature;BME280_humidity;BME280_pressure;Samples;Min_cycle;Max_cycle;Signal;HPM_P1;HPM_P2
2022/04/28 00:00:13;;;;;;;5.23;2.60;;;7.30;99.90;;;;;;10480555;28;20241;-80
2022/04/28 00:05:35;;;;;;;4.33;2.07;;;7.30;1.00;;;;;;10480259;28;20198;-80
2022/04/28 00:10:56;;;;;;;3.70;2.20;;;7.40;1.00;;;;;;10504359;28;20195;-80
2022/04/28 00:16:17;;;;;;;4.73;2.13;;;7.30;27.00;;;;;;10501929;28;20212;-80
2022/04/28 00:21:39;;;;;;;4.53;1.87;;;7.30;1.00;;;;;;10507265;28;20213;-80
2022/04/28 00:27:01;;;;;;;7.53;2.10;;;7.20;9.80;;;;;;10478048;28;20230;-80
2022/04/28 00:32:22;;;;;;;3.00;1.83;;;7.00;99.90;;;;;;10465338;28;20388;-79
2022/04/28 00:37:44;;;;;;;5.30;2.43;;;7.00;1.00;;;;;;10478974;28;20219;-79
2022/04/28 00:43:20;;;;;;;3.60;1.90;;;6.90;1.00;;;;;;10490149;28;20577;-80
2022/04/28 00:54:22;;;;;;;3.60;1.83;;;7.00;1.00;;;;;;10519553;28;20380;-80
2022/04/28 00:59:46;;;;;;;3.23;1.90;;;7.20;1.00;;;;;;10519630;28;20236;-80
2022/04/28 01:05:09;;;;;;;4.50;2.00;;;7.00;99.90;;;;;;10479016;28;20207;-80
2022/04/28 01:10:31;;;;;;;4.07;1.93;;;6.90;1.00;;;;;;10484501;28;20198;-80
2022/04/28 01:15:54;;;;;;;2.67;1.50;;;6.80;1.00;;;;;;10507734;28;20231;-80
2022/04/28 01:21:15;;;;;;;2.80;1.10;;;6.90;1.00;;;;;;10496985;28;20419;-80
2022/04/28 01:26:40;;;;;;;2.90;1.23;;;6.80;1.00;;;;;;10491913;28;20298;-79
2022/04/28 01:32:01;;;;;;;2.77;1.40;;;6.80;1.00;;;;;;10480396;28;20214;-79
2022/04/28 01:37:28;;;;;;;6.53;1.20;;;6.60;1.00;;;;;;10476875;28;20269;-80
2022/04/28 01:42:51;;;;;;;4.23;2.07;;;6.40;1.00;;;;;;10483451;28;20186;-80
2022/04/28 01:48:14;;;;;;;5.77;2.90;;;6.40;1.00;;;;;;10502419;28;20395;-80
2022/04/28 01:59:54;;;;;;;3.17;2.47;;;6.40;1.00;;;;;;10501377;28;20538;-79
2022/04/28 02:05:35;;;;;;;6.40;3.57;;;6.30;1.00;;;;;;10515373;28;20208;-80
2022/04/28 02:11:00;;;;;;;5.00;3.10;;;6.30;1.00;;;;;;10459150;28;20208;-80
2022/04/28 02:16:40;;;;;;;5.80;3.67;;;6.30;1.00;;;;;;10496361;28;20283;-80
2022/04/28 02:22:16;;;;;;;3.17;2.00;;;6.40;1.00;;;;;;10500750;28;20213;-80
2022/04/28 02:27:38;;;;;;;3.90;2.23;;;6.30;99.90;;;;;;10495628;28;20231;-80
2022/04/28 02:33:11;;;;;;;4.43;2.10;;;6.30;99.90;;;;;;10483489;28;20217;-80
2022/04/28 02:38:52;;;;;;;7.03;2.20;;;6.20;99.90;;;;;;10515941;28;20225;-80
2022/04/28 02:44:14;;;;;;;4.53;2.17;;;6.30;99.90;;;;;;10516972;28;20376;-80
2022/04/28 02:49:36;;;;;;;6.63;2.40;;;6.30;99.90;;;;;;10488807;28;20457;-80
2022/04/28 02:55:01;;;;;;;6.23;2.40;;;6.30;99.90;;;;;;10503528;28;20294;-80
2022/04/28 03:00:22;;;;;;;4.87;2.20;;;6.30;99.90;;;;;;10512979;28;20191;-80
2022/04/28 03:11:39;;;;;;;3.00;1.83;;;6.30;99.90;;;;;;10501787;28;20203;-80
2022/04/28 03:17:00;;;;;;;3.03;1.67;;;6.30;99.90;;;;;;10498294;28;20263;-80
2022/04/28 03:22:23;;;;;;;2.20;1.63;;;6.20;99.90;;;;;;10506939;28;20206;-80
2022/04/28 03:27:44;;;;;;;6.10;2.57;;;6.20;99.90;;;;;;10492560;28;20243;-80
2022/04/28 03:33:07;;;;;;;4.50;2.20;;;6.20;99.90;;;;;;10489125;28;20256;-80
2022/04/28 03:38:29;;;;;;;3.97;1.90;;;6.10;99.90;;;;;;10503653;28;20463;-80
2022/04/28 03:43:51;;;;;;;2.47;2.00;;;6.00;99.90;;;;;;10503275;28;20202;-80
2022/04/28 03:49:12;;;;;;;3.87;2.57;;;6.10;99.90;;;;;;10481017;28;20506;-80
2022/04/28 03:54:34;;;;;;;3.87;2.60;;;6.20;99.90;;;;;;10466385;28;20230;-79
2022/04/28 03:59:57;;;;;;;4.00;3.20;;;6.30;99.90;;;;;;10452891;28;20198;-80
2022/04/28 04:05:27;;;;;;;6.27;3.23;;;6.10;1.00;;;;;;10521423;28;20210;-80
2022/04/28 04:10:48;;;;;;;3.63;2.57;;;6.20;1.00;;;;;;10514229;28;20246;-80
2022/04/28 04:16:11;;;;;;;3.83;2.70;;;6.30;1.00;;;;;;10506866;28;20231;-79
2022/04/28 04:21:55;;;;;;;9.30;3.87;;;6.50;1.00;;;;;;10495862;28;20269;-80
2022/04/28 04:27:16;;;;;;;6.33;4.20;;;6.50;1.00;;;;;;10492448;28;20333;-80
2022/04/28 04:33:13;;;;;;;4.87;3.20;;;6.60;1.00;;;;;;10476102;28;20230;-80
2022/04/28 04:38:35;;;;;;;4.83;3.20;;;6.50;1.00;;;;;;10462491;28;20241;-79
2022/04/28 04:43:57;;;;;;;7.67;4.00;;;6.50;1.00;;;;;;10462169;28;20271;-80
2022/04/28 04:49:18;;;;;;;7.10;3.70;;;6.50;1.00;;;;;;10458966;28;20204;-79
2022/04/28 04:54:46;;;;;;;10.37;3.73;;;6.60;1.00;;;;;;10461638;28;20230;-80
2022/04/28 05:00:08;;;;;;;8.23;3.10;;;6.70;1.00;;;;;;10460005;28;20402;-80
2022/04/28 05:05:51;;;;;;;7.23;4.00;;;6.70;1.00;;;;;;10418877;28;20513;-80
2022/04/28 05:11:18;;;;;;;16.63;8.67;;;6.70;1.00;;;;;;10424425;28;20226;-79
2022/04/28 05:17:03;;;;;;;13.93;6.90;;;6.80;1.00;;;;;;10424983;28;20245;-80
2022/04/28 05:22:35;;;;;;;18.63;7.80;;;7.10;1.00;;;;;;10433380;28;20219;-80
2022/04/28 05:28:15;;;;;;;23.67;10.73;;;7.30;1.00;;;;;;10432786;28;20209;-80
2022/04/28 05:33:55;;;;;;;25.13;8.33;;;7.60;1.00;;;;;;10432569;28;20266;-80
2022/04/28 05:39:29;;;;;;;11.87;4.77;;;7.80;1.00;;;;;;10427222;28;20199;-80
2022/04/28 05:50:33;;;;;;;11.57;4.97;;;7.90;1.00;;;;;;10503428;28;20302;-80
2022/04/28 05:55:55;;;;;;;15.10;5.43;;;8.20;1.00;;;;;;10503656;28;20245;-79
2022/04/28 06:01:26;;;;;;;12.13;5.40;;;8.70;1.00;;;;;;10475853;28;20228;-80
2022/04/28 06:06:51;;;;;;;8.70;4.90;;;9.10;1.00;;;;;;10471092;28;20280;-80
2022/04/28 06:12:35;;;;;;;7.53;4.13;;;9.60;99.90;;;;;;10496848;28;20216;-80
2022/04/28 06:18:02;;;;;;;14.90;5.60;;;10.60;1.00;;;;;;10508382;28;20195;-80
2022/04/28 06:23:24;;;;;;;16.00;7.20;;;11.50;99.90;;;;;;10503053;28;20198;-80
2022/04/28 06:28:47;;;;;;;15.45;6.88;;;12.20;99.90;;;;;;10517286;28;20236;-77
2022/04/28 06:34:08;;;;;;;7.82;4.95;;;12.80;99.90;;;;;;10463107;28;20243;-77
2022/04/28 06:39:34;;;;;;;9.65;4.85;;;13.60;1.00;;;;;;10468976;28;20368;-78
2022/04/28 06:44:56;;;;;;;12.00;6.05;;;14.30;1.00;;;;;;10455220;28;20205;-78
2022/04/28 06:50:36;;;;;;;7.88;5.15;;;14.40;99.90;;;;;;10483185;28;20209;-78
2022/04/28 06:56:17;;;;;;;8.95;5.57;;;14.70;1.00;;;;;;10483923;28;20218;-77
2022/04/28 07:01:57;;;;;;;11.35;5.30;;;15.50;1.00;;;;;;10492442;28;20431;-77
2022/04/28 07:07:19;;;;;;;10.13;5.25;;;16.30;1.00;;;;;;10510243;28;20197;-78
2022/04/28 07:12:45;;;;;;;10.15;5.00;;;16.50;1.00;;;;;;10512393;28;20296;-78
2022/04/28 07:18:35;;;;;;;8.80;4.63;;;17.20;99.90;;;;;;10518709;28;20209;-80
2022/04/28 07:23:57;;;;;;;7.53;4.00;;;17.60;99.90;;;;;;10509853;28;20395;-80
2022/04/28 07:29:18;;;;;;;9.30;4.53;;;17.80;99.90;;;;;;10508550;28;20209;-80
2022/04/28 07:35:07;;;;;;;9.05;4.72;;;18.00;99.90;;;;;;10499181;28;20596;-77
2022/04/28 07:40:47;;;;;;;11.45;4.90;;;18.20;99.90;;;;;;10501761;28;20195;-79
2022/04/28 07:46:11;;;;;;;8.65;4.93;;;18.90;98.70;;;;;;10503355;28;20199;-79
2022/04/28 07:51:32;;;;;;;7.45;5.15;;;19.10;40.10;;;;;;10489701;28;20199;-76
2022/04/28 07:56:53;;;;;;;9.65;5.47;;;19.30;1.30;;;;;;10479217;28;20217;-76
2022/04/28 08:02:17;;;;;;;10.43;3.65;;;19.50;1.00;;;;;;10502957;28;20498;-78
2022/04/28 08:07:42;;;;;;;7.72;3.67;;;19.40;1.00;;;;;;10516664;28;20207;-77
2022/04/28 08:13:04;;;;;;;5.88;3.80;;;19.90;1.00;;;;;;10517717;28;20318;-79
2022/04/28 08:18:39;;;;;;;4.28;2.55;;;20.00;1.00;;;;;;10515916;28;20506;-82
2022/04/28 08:24:08;;;;;;;8.02;4.22;;;19.00;1.00;;;;;;10503913;28;20258;-79
2022/04/28 08:29:32;;;;;;;6.78;3.67;;;17.60;1.00;;;;;;10507927;28;20227;-78
2022/04/28 08:35:09;;;;;;;6.90;3.00;;;16.50;1.00;;;;;;10493590;28;20414;-78
2022/04/28 08:40:32;;;;;;;6.88;2.70;;;16.30;1.00;;;;;;10494793;28;20210;-79
2022/04/28 08:51:48;;;;;;;6.88;2.97;;;17.40;1.00;;;;;;10473665;28;20442;-81
2022/04/28 08:57:11;;;;;;;5.60;1.80;;;17.50;1.00;;;;;;10477969;28;20224;-77
2022/04/28 09:02:34;;;;;;;4.40;1.90;;;16.50;1.00;;;;;;10488161;28;20233;-78
2022/04/28 09:08:08;;;;;;;2.70;1.90;;;17.60;1.00;;;;;;10518573;28;20563;-79
2022/04/28 09:14:14;;;;;;;5.65;3.00;;;18.50;1.00;;;;;;10523779;28;20234;-79
2022/04/28 09:19:39;;;;;;;3.65;1.88;;;18.00;1.00;;;;;;10458507;28;20209;-79
2022/04/28 09:25:10;;;;;;;3.00;1.85;;;17.60;1.00;;;;;;10475346;28;20429;-76
2022/04/28 09:30:42;;;;;;;5.25;3.00;;;17.60;1.00;;;;;;10499881;28;20390;-77
2022/04/28 09:36:23;;;;;;;4.63;2.75;;;17.40;1.00;;;;;;10471970;28;20562;-86
2022/04/28 09:47:32;;;;;;;6.80;2.85;;;16.40;1.00;;;;;;10472845;28;20386;-79
2022/04/28 09:52:54;;;;;;;5.28;2.78;;;16.50;1.00;;;;;;10471936;28;20273;-79
2022/04/28 09:58:44;;;;;;;8.02;3.00;;;16.90;1.00;;;;;;10497653;28;20213;-80
2022/04/28 10:04:07;;;;;;;5.57;3.10;;;16.60;1.00;;;;;;10470990;28;20189;-79
2022/04/28 10:09:51;;;;;;;3.65;2.63;;;16.80;1.00;;;;;;10497112;28;20254;-82
2022/04/28 10:15:15;;;;;;;4.43;2.30;;;17.60;1.00;;;;;;10492505;28;20235;-80
2022/04/28 10:20:47;;;;;;;13.48;5.65;;;19.20;1.00;;;;;;10492088;28;20401;-84
2022/04/28 10:37:41;;;;;;;5.00;2.72;;;17.10;1.00;;;;;;10492381;28;20218;-80
2022/04/28 10:43:02;;;;;;;3.72;2.20;;;17.80;1.00;;;;;;10481344;28;20450;-79
2022/04/28 10:48:35;;;;;;;7.63;3.90;;;19.10;1.00;;;;;;10480068;28;20242;-80
2022/04/28 10:54:00;;;;;;;9.93;5.57;;;20.20;1.00;;;;;;10465235;28;20243;-81
2022/04/28 11:05:22;;;;;;;5.90;2.97;;;17.90;1.00;;;;;;10529395;28;20206;-81
2022/04/28 11:11:03;;;;;;;2.22;1.65;;;17.90;1.00;;;;;;10512585;28;20232;-81
2022/04/28 11:16:26;;;;;;;4.03;1.60;;;19.40;1.00;;;;;;10500834;28;20258;-81
2022/04/28 11:21:52;;;;;;;8.23;3.53;;;19.30;1.00;;;;;;10495663;28;20199;-84
2022/04/28 11:27:15;;;;;;;3.30;2.17;;;18.70;1.00;;;;;;10525134;28;20443;-80
2022/04/28 11:32:57;;;;;;;3.55;2.83;;;17.70;1.00;;;;;;10543739;28;20194;-85
2022/04/28 11:38:26;;;;;;;3.03;1.60;;;17.40;1.00;;;;;;10492679;28;20341;-81
2022/04/28 11:43:47;;;;;;;4.47;1.55;;;18.20;1.00;;;;;;10478504;28;20422;-82
2022/04/28 11:49:09;;;;;;;3.30;1.60;;;18.90;1.00;;;;;;10463533;28;20207;-80
2022/04/28 11:54:31;;;;;;;2.63;1.92;;;19.30;1.00;;;;;;10466119;28;20242;-82
2022/04/28 11:59:52;;;;;;;2.75;1.67;;;18.40;1.00;;;;;;10488857;28;20211;-80
2022/04/28 12:05:21;;;;;;;7.47;3.72;;;17.60;1.00;;;;;;10522248;28;20214;-90
2022/04/28 12:19:19;;;;;;;1.65;1.25;;;17.30;1.00;;;;;;10487632;28;20238;-82
2022/04/28 12:22:05;;;;;;;9.02;5.00;;;17.40;1.00;;;;;;10477775;28;20368;-83
2022/04/28 12:27:35;;;;;;;3.67;2.13;;;17.10;1.00;;;;;;10498640;28;20417;-80
2022/04/28 12:32:59;;;;;;;3.00;1.92;;;17.10;1.00;;;;;;10561787;28;20265;-83
2022/04/28 12:38:26;;;;;;;4.35;1.52;;;18.00;1.00;;;;;;10471463;28;20208;-87
2022/04/28 12:43:52;;;;;;;16.65;3.10;;;17.70;1.00;;;;;;10506620;28;20195;-80
2022/04/28 12:49:16;;;;;;;9.70;1.95;;;17.70;1.00;;;;;;10497379;28;20195;-78
2022/04/28 12:54:38;;;;;;;1.80;1.30;;;18.20;1.00;;;;;;10535041;28;20260;-80
2022/04/28 13:00:14;;;;;;;60.30;4.65;;;18.50;1.00;;;;;;10501840;28;20191;-79
2022/04/28 13:05:36;;;;;;;12.30;4.60;;;18.00;1.00;;;;;;10521367;28;20412;-80
2022/04/28 13:10:57;;;;;;;4.82;2.33;;;17.30;1.00;;;;;;10523710;28;20190;-80
2022/04/28 13:16:19;;;;;;;4.45;1.50;;;16.90;1.00;;;;;;10508494;28;20225;-80
2022/04/28 13:21:42;;;;;;;3.17;1.20;;;16.80;1.00;;;;;;10515223;28;20197;-82
2022/04/28 13:27:03;;;;;;;2.53;1.50;;;17.00;1.00;;;;;;10541002;28;20265;-80
2022/04/28 13:32:24;;;;;;;14.48;5.70;;;17.10;1.00;;;;;;10557557;28;20454;-80
2022/04/28 13:37:46;;;;;;;13.30;6.75;;;17.10;1.00;;;;;;10546708;28;20441;-82
2022/04/28 13:43:08;;;;;;;3.33;2.00;;;17.00;1.00;;;;;;10556673;28;20190;-80
2022/04/28 13:48:29;;;;;;;6.25;2.97;;;16.90;1.00;;;;;;10541549;28;20437;-81
2022/04/28 13:53:51;;;;;;;4.50;1.38;;;16.70;1.00;;;;;;10557763;28;20239;-79
2022/04/28 13:59:12;;;;;;;5.65;1.83;;;16.70;1.00;;;;;;10538349;28;20279;-83
2022/04/28 14:04:33;;;;;;;4.53;2.47;;;16.50;1.00;;;;;;10557486;28;20212;-87
2022/04/28 14:09:55;;;;;;;3.00;2.10;;;16.50;1.00;;;;;;10533310;28;20261;-83
2022/04/28 14:15:16;;;;;;;2.15;1.70;;;16.50;1.00;;;;;;10512924;28;20244;-80
2022/04/28 14:20:38;;;;;;;3.67;2.60;;;16.40;1.00;;;;;;10516980;28;20557;-83
2022/04/28 14:25:59;;;;;;;2.80;2.33;;;16.30;1.00;;;;;;10512921;28;20304;-85
2022/04/28 14:31:22;;;;;;;3.28;2.28;;;16.30;1.00;;;;;;10528366;28;20197;-83
2022/04/28 14:36:56;;;;;;;3.33;2.00;;;16.30;1.00;;;;;;10477797;28;20245;-87
2022/04/28 14:42:17;;;;;;;3.67;1.88;;;16.10;1.00;;;;;;10470552;28;20542;-82
2022/04/28 14:47:46;;;;;;;11.55;3.45;;;16.20;1.00;;;;;;10490209;28;20243;-80
2022/04/28 14:53:07;;;;;;;2.78;1.70;;;16.10;1.00;;;;;;10460138;28;20278;-81
2022/04/28 14:58:28;;;;;;;6.47;2.20;;;16.20;1.00;;;;;;10525484;28;20230;-84
2022/04/28 15:03:50;;;;;;;5.72;2.75;;;16.50;1.00;;;;;;10508147;28;20215;-80
2022/04/28 15:09:11;;;;;;;7.03;3.90;;;16.60;1.00;;;;;;10481089;28;20272;-79
2022/04/28 15:14:33;;;;;;;3.72;2.60;;;16.40;1.00;;;;;;10526888;28;20505;-79
2022/04/28 15:19:54;;;;;;;5.70;1.85;;;16.30;1.00;;;;;;10510221;28;20257;-80
2022/04/28 15:25:16;;;;;;;5.78;3.38;;;16.00;1.00;;;;;;10493705;28;20272;-81
2022/04/28 15:30:37;;;;;;;3.83;1.95;;;16.00;1.00;;;;;;10510172;28;20564;-84
2022/04/28 15:35:58;;;;;;;4.13;1.70;;;16.10;1.00;;;;;;10522709;28;20225;-83
2022/04/28 15:41:19;;;;;;;4.50;1.58;;;16.30;1.00;;;;;;10469335;28;20194;-81
2022/04/28 15:46:41;;;;;;;2.85;1.70;;;16.30;1.00;;;;;;10483739;28;20251;-81
2022/04/28 15:52:03;;;;;;;32.65;3.53;;;16.10;1.00;;;;;;10468121;28;20227;-80
2022/04/28 15:57:25;;;;;;;5.40;2.25;;;16.00;1.00;;;;;;10495109;28;20224;-79
2022/04/28 16:02:46;;;;;;;4.30;1.40;;;16.10;1.00;;;;;;10512199;28;20488;-83
2022/04/28 16:08:09;;;;;;;1.50;1.20;;;16.10;1.00;;;;;;10522909;28;20353;-79
2022/04/28 16:13:31;;;;;;;4.53;2.30;;;16.00;1.00;;;;;;10530223;28;20425;-78
2022/04/28 16:18:53;;;;;;;3.97;1.63;;;16.10;1.00;;;;;;10524849;28;20213;-78
2022/04/28 16:24:14;;;;;;;2.28;1.50;;;16.00;1.00;;;;;;10522427;28;20236;-79
2022/04/28 16:29:35;;;;;;;4.20;1.98;;;16.00;1.00;;;;;;10509450;28;20202;-79
2022/04/28 16:34:57;;;;;;;4.28;1.70;;;15.80;1.00;;;;;;10514799;28;20218;-79
2022/04/28 16:40:18;;;;;;;3.35;1.90;;;15.70;1.00;;;;;;10504314;28;20375;-81
2022/04/28 16:45:39;;;;;;;4.70;2.63;;;15.50;1.00;;;;;;10507096;28;20197;-84
2022/04/28 16:51:01;;;;;;;5.32;2.65;;;15.00;1.00;;;;;;10493775;28;20202;-80
2022/04/28 16:56:22;;;;;;;7.57;3.28;;;14.80;1.00;;;;;;10506798;28;20230;-81
2022/04/28 17:01:44;;;;;;;9.18;5.13;;;14.50;1.00;;;;;;10479951;28;20243;-79
2022/04/28 17:07:07;;;;;;;7.82;3.95;;;14.20;1.00;;;;;;10479893;28;20202;-82
2022/04/28 17:12:28;;;;;;;4.90;2.95;;;14.10;1.00;;;;;;10508166;28;20495;-80
2022/04/28 17:17:49;;;;;;;6.15;3.25;;;13.90;1.00;;;;;;10491191;28;20234;-83
2022/04/28 17:23:10;;;;;;;10.65;4.50;;;13.80;1.00;;;;;;10463130;28;20414;-79
2022/04/28 17:28:31;;;;;;;11.38;5.07;;;13.70;1.00;;;;;;10478204;28;20201;-80
2022/04/28 17:33:52;;;;;;;14.10;8.20;;;13.40;1.00;;;;;;10463755;28;20414;-84
2022/04/28 17:39:14;;;;;;;11.05;5.95;;;13.20;1.00;;;;;;10499815;28;20204;-79
2022/04/28 17:44:35;;;;;;;8.60;5.13;;;13.10;1.00;;;;;;10520328;28;20505;-80
2022/04/28 17:49:57;;;;;;;12.48;5.88;;;13.00;1.00;;;;;;10519064;28;20219;-81
2022/04/28 18:00:59;;;;;;;18.42;9.00;;;12.70;1.00;;;;;;10477035;28;20280;-82
2022/04/28 18:06:21;;;;;;;16.75;9.25;;;12.60;1.00;;;;;;10462800;28;20450;-80
2022/04/28 18:11:42;;;;;;;25.23;12.48;;;12.50;1.00;;;;;;10486262;28;20218;-80
2022/04/28 18:17:05;;;;;;;26.30;14.93;;;12.40;1.00;;;;;;10518149;28;20416;-81
2022/04/28 18:22:27;;;;;;;35.35;20.17;;;12.40;1.00;;;;;;10518942;28;20189;-82
2022/04/28 18:27:48;;;;;;;31.90;17.50;;;12.40;1.00;;;;;;10504642;28;20300;-80
2022/04/28 18:33:09;;;;;;;36.80;19.73;;;12.20;1.00;;;;;;10508018;28;20230;-79
2022/04/28 18:44:28;;;;;;;42.20;22.38;;;12.00;1.00;;;;;;10525853;28;20200;-82
2022/04/28 18:49:50;;;;;;;44.30;24.92;;;11.90;1.00;;;;;;10511808;28;20191;-79
2022/04/28 18:55:13;;;;;;;40.92;18.95;;;11.80;1.00;;;;;;10527174;28;20217;-79
2022/04/28 19:00:35;;;;;;;40.40;17.73;;;11.60;1.00;;;;;;10483494;28;20219;-82
2022/04/28 19:05:56;;;;;;;34.72;16.88;;;11.50;1.00;;;;;;10484604;28;20188;-82
2022/04/28 19:11:18;;;;;;;37.95;18.23;;;11.30;1.00;;;;;;10491114;28;20220;-81
2022/04/28 19:16:39;;;;;;;35.33;20.25;;;11.20;1.00;;;;;;10524263;28;20271;-78
2022/04/28 19:22:02;;;;;;;35.97;17.67;;;11.10;1.00;;;;;;10524521;28;20191;-81
2022/04/28 19:27:25;;;;;;;32.75;18.52;;;10.90;1.00;;;;;;10510282;28;20236;-78
2022/04/28 19:32:46;;;;;;;38.67;21.07;;;10.80;1.00;;;;;;10524775;28;20266;-82
2022/04/28 19:38:08;;;;;;;48.47;23.83;;;10.70;1.00;;;;;;10512249;28;20227;-79
2022/04/28 19:43:30;;;;;;;41.60;20.50;;;10.50;1.00;;;;;;10543874;28;20178;-80
2022/04/28 19:48:52;;;;;;;34.10;18.83;;;10.40;1.00;;;;;;10529362;28;20202;-81
2022/04/28 19:54:13;;;;;;;32.93;17.83;;;10.30;1.00;;;;;;10511648;28;20282;-82
2022/04/28 19:59:35;;;;;;;37.03;20.53;;;10.20;1.00;;;;;;10525679;28;20225;-81
2022/04/28 20:04:56;;;;;;;36.97;20.10;;;10.10;1.00;;;;;;10495757;28;20248;-81
2022/04/28 20:10:18;;;;;;;36.80;19.67;;;10.00;1.00;;;;;;10496404;28;20202;-79
2022/04/28 20:15:39;;;;;;;38.97;20.70;;;9.80;1.00;;;;;;10495164;28;20229;-79
2022/04/28 20:21:00;;;;;;;43.60;22.10;;;9.70;1.00;;;;;;10494929;28;20194;-78
2022/04/28 20:26:23;;;;;;;41.17;22.10;;;9.60;1.00;;;;;;10508678;28;20242;-78
2022/04/28 20:31:44;;;;;;;49.60;24.83;;;9.40;1.00;;;;;;10522888;28;20190;-79
2022/04/28 20:37:08;;;;;;;59.33;28.70;;;9.30;1.00;;;;;;10483198;28;20225;-78
2022/04/28 20:42:29;;;;;;;59.87;28.97;;;9.30;1.10;;;;;;10467027;28;20195;-78
2022/04/28 20:47:51;;;;;;;58.50;27.37;;;9.20;17.20;;;;;;10467352;28;20430;-82
2022/04/28 20:53:13;;;;;;;56.93;26.03;;;9.10;56.60;;;;;;10466100;28;20206;-77
2022/04/28 20:58:35;;;;;;;61.20;28.73;;;9.00;99.90;;;;;;10497539;28;20321;-79
2022/04/28 21:03:56;;;;;;;55.83;26.70;;;8.80;99.90;;;;;;10521388;28;20202;-77
2022/04/28 21:09:17;;;;;;;52.40;26.70;;;8.80;99.90;;;;;;10494612;28;20198;-80
2022/04/28 21:14:39;;;;;;;50.10;25.23;;;8.60;99.90;;;;;;10525985;28;20226;-80
2022/04/28 21:20:00;;;;;;;47.47;24.00;;;8.30;1.00;;;;;;10506686;28;20197;-79
2022/04/28 21:25:23;;;;;;;53.63;25.10;;;8.30;1.00;;;;;;10505877;28;20234;-81
2022/04/28 21:30:45;;;;;;;58.07;26.13;;;8.20;1.00;;;;;;10520726;28;20202;-81
2022/04/28 21:36:07;;;;;;;60.00;28.93;;;8.10;1.00;;;;;;10502182;28;20226;-80
2022/04/28 21:41:30;;;;;;;69.10;30.33;;;8.00;99.90;;;;;;10478650;28;20220;-81
2022/04/28 21:46:52;;;;;;;62.90;29.43;;;8.00;1.00;;;;;;10465197;28;20262;-82
2022/04/28 21:52:13;;;;;;;65.27;32.03;;;7.90;1.00;;;;;;10449701;28;20244;-81
2022/04/28 21:57:36;;;;;;;58.87;27.47;;;7.80;99.90;;;;;;10487085;28;20296;-84
2022/04/28 22:02:57;;;;;;;51.33;26.63;;;7.70;1.00;;;;;;10518818;28;20197;-82
2022/04/28 22:13:58;;;;;;;39.97;20.17;;;7.50;99.90;;;;;;10521817;28;20228;-81
2022/04/28 22:19:19;;;;;;;47.17;23.07;;;7.40;99.90;;;;;;10486421;28;20192;-81
2022/04/28 22:24:40;;;;;;;49.33;24.10;;;7.20;28.40;;;;;;10486108;28;20225;-80
2022/04/28 22:30:11;;;;;;;48.43;23.77;;;7.10;1.00;;;;;;10471121;28;20244;-83
2022/04/28 22:35:50;;;;;;;54.10;23.07;;;7.00;1.00;;;;;;10486011;28;20242;-81
2022/04/28 22:41:12;;;;;;;51.90;26.03;;;7.00;1.00;;;;;;10484251;28;20380;-77
2022/04/28 22:46:33;;;;;;;57.03;23.77;;;6.90;99.90;;;;;;10487444;28;20235;-80
2022/04/28 22:51:55;;;;;;;51.40;24.83;;;6.80;1.00;;;;;;10526870;28;20184;-80
2022/04/28 22:57:16;;;;;;;51.27;23.50;;;6.70;99.90;;;;;;10511208;28;20232;-80
2022/04/28 23:02:37;;;;;;;44.00;22.53;;;6.60;98.80;;;;;;10525378;28;20245;-83
2022/04/28 23:07:58;;;;;;;44.67;21.30;;;6.50;1.00;;;;;;10496955;28;20293;-84
2022/04/28 23:13:19;;;;;;;61.30;28.17;;;6.40;99.90;;;;;;10534119;28;20485;-81
2022/04/28 23:18:40;;;;;;;57.20;26.50;;;6.40;1.00;;;;;;10474788;28;20223;-82
2022/04/28 23:24:03;;;;;;;45.60;23.20;;;6.40;1.00;;;;;;10483386;28;20435;-78
2022/04/28 23:29:25;;;;;;;41.33;22.07;;;6.40;1.00;;;;;;10482928;28;20211;-79
2022/04/28 23:40:28;;;;;;;41.67;22.20;;;6.30;1.00;;;;;;10481913;28;20199;-79
2022/04/28 23:45:50;;;;;;;52.30;22.13;;;6.20;99.90;;;;;;10484707;28;20274;-82
2022/04/28 23:51:11;;;;;;;50.87;24.50;;;6.20;99.90;;;;;;10468164;28;20269;-84
2022/04/28 23:56:32;;;;;;;54.77;23.77;;;6.10;1.00;;;;;;10482582;28;20237;-80
